Página principal
METAR-TAF:

METAR-TAF

Aeroportos :

Aeroporto Internacional de Atenas

Atenas, Grécia

latitude: 37-56N, longitude: 023-56E, altura: 94 m

Observação actual do tempo

O boletim foi feito há 40 minutos, às 17:20 UTC
Vento 5 kt de nor-nordeste
Temperatura 15°C
Humidade 67%
Pressão 1021 hPa
Visibilidade 10 km ou mais
Poucas nuvensa uma altura de 3000 ft

METAR: LGAV 201720Z 03005KT 9999 FEW030 15/09 Q1021 NOSIG

Hora: 20:00 (18:00 UTC)

Previsão

O boletim foi feito há 1 hora e 0 minutos, às 17:00 UTC
Previsão válida de 20 às 18 UTC a 21 às 18 UTC
Vento 15 kt de norte
Visibilidade 10 km ou mais
Nuvens dispersasa uma altura de 2500 ft
Tornando-se
de 21 às 04 UTC a 21 às 06 UTC
Vento 20 kt de norte com rajadas de 30 kt

TAF: LGAV 201700Z 2018/2118 01015KT 9999 SCT025 BECMG 2104/2106 01020G30KT

Observações e previsões do tempo de mais de 4000 aeroportos (mensagens METAR e TAF).

As estações disponíveis são os pontos amarelos e vermelhos sobre o mapa.

Mova o rato sobre o mapa para ver o nome da estação.

Depois clique no ponto para visualizar as observações e previsões meteorológicas.

Para alterar o mapa : clique nos botões verdes com uma cruz preta para aumentar o zoom; no botão verde com uma pitada de zoom; ou nas setas verdes para mapas adjacentes.


METAR-TAF: